Time;durP1;ratioP1;P1;durP2;ratioP2;P2;SDS_P1;SDS_P2;PMS_P1;PMS_P2;Temp;Humidity;BMP_temperature;BMP_pressure;BME280_temperature;BME280_humidity;BME280_pressure;Samples;Min_cycle;Max_cycle;Signal;HPM_P1;HPM_P2
2023/10/03 00:00:34;;;;;;;23.42;11.52;;;11.60;99.90;;;;;;5027522;28;19932;-59
2023/10/03 00:03:04;;;;;;;27.33;12.18;;;11.60;99.90;;;;;;5027496;28;20038;-59
2023/10/03 00:05:35;;;;;;;24.00;12.18;;;11.50;99.90;;;;;;5027389;28;20041;-59
2023/10/03 00:08:04;;;;;;;24.38;11.60;;;11.50;99.90;;;;;;5029963;28;20056;-59
2023/10/03 00:10:38;;;;;;;25.70;11.95;;;11.60;99.90;;;;;;5028554;28;20060;-59
2023/10/03 00:13:11;;;;;;;28.20;11.95;;;11.60;99.90;;;;;;5037455;28;20041;-60
2023/10/03 00:15:43;;;;;;;25.25;11.40;;;11.60;99.90;;;;;;5007943;28;20053;-59
2023/10/03 00:18:15;;;;;;;27.98;12.20;;;11.60;99.90;;;;;;5031778;28;20092;-59
2023/10/03 00:20:43;;;;;;;31.13;12.32;;;11.60;99.90;;;;;;5046205;28;20041;-59
2023/10/03 00:23:11;;;;;;;33.22;12.73;;;11.60;99.90;;;;;;5039784;28;20065;-59
2023/10/03 00:25:39;;;;;;;28.23;11.60;;;11.60;99.90;;;;;;5024814;28;20559;-59
2023/10/03 00:28:07;;;;;;;36.35;13.02;;;11.60;99.90;;;;;;5029931;28;20053;-59
2023/10/03 00:30:39;;;;;;;27.85;11.32;;;11.60;99.90;;;;;;5047068;28;20057;-59
2023/10/03 00:33:11;;;;;;;32.38;12.73;;;11.60;99.90;;;;;;5041217;28;20057;-59
2023/10/03 00:35:42;;;;;;;36.38;11.98;;;11.60;99.90;;;;;;5014093;28;20485;-59
2023/10/03 00:38:14;;;;;;;34.72;12.43;;;11.60;99.90;;;;;;5026158;28;20054;-58
2023/10/03 00:40:50;;;;;;;25.77;11.55;;;11.60;99.90;;;;;;5028529;28;20049;-59
2023/10/03 00:43:18;;;;;;;27.90;12.73;;;11.60;99.90;;;;;;5027023;28;20052;-59
2023/10/03 00:45:48;;;;;;;25.05;12.07;;;11.60;99.90;;;;;;5025671;28;20060;-59
2023/10/03 00:48:17;;;;;;;31.63;12.82;;;11.70;99.90;;;;;;5025959;28;20050;-58
2023/10/03 00:50:45;;;;;;;33.60;13.20;;;11.70;99.90;;;;;;5031346;28;20477;-59
2023/10/03 00:53:14;;;;;;;32.45;12.85;;;11.70;99.90;;;;;;5029711;28;20042;-59
2023/10/03 00:55:47;;;;;;;35.75;14.88;;;11.70;99.90;;;;;;5043875;28;20673;-59
2023/10/03 00:58:28;;;;;;;35.83;14.77;;;11.70;99.90;;;;;;5045901;28;20507;-58
2023/10/03 01:00:57;;;;;;;37.70;15.75;;;11.70;99.90;;;;;;5049524;28;20055;-59
2023/10/03 01:03:30;;;;;;;39.65;15.10;;;11.80;99.90;;;;;;5044413;28;20235;-60
2023/10/03 01:06:07;;;;;;;39.45;16.10;;;11.70;99.90;;;;;;5027377;28;20057;-60
2023/10/03 01:08:39;;;;;;;31.65;15.40;;;11.80;99.90;;;;;;5029057;28;20045;-60
2023/10/03 01:11:15;;;;;;;35.13;14.57;;;11.80;99.90;;;;;;5010923;28;20045;-59
2023/10/03 01:13:48;;;;;;;37.42;14.65;;;11.80;99.90;;;;;;5020786;28;20048;-60
2023/10/03 01:16:33;;;;;;;32.10;12.30;;;11.80;99.90;;;;;;5030400;28;20045;-59
2023/10/03 01:19:13;;;;;;;32.45;12.55;;;11.80;99.90;;;;;;5037852;28;20052;-59
2023/10/03 01:21:42;;;;;;;27.80;11.90;;;11.80;99.90;;;;;;5029373;28;20049;-59
2023/10/03 01:24:13;;;;;;;27.42;11.88;;;11.80;99.90;;;;;;5028544;28;20397;-59
2023/10/03 01:26:40;;;;;;;31.58;11.88;;;11.70;99.90;;;;;;5040972;28;20041;-59
2023/10/03 01:29:08;;;;;;;38.90;13.15;;;11.80;99.90;;;;;;5030335;28;20049;-60
2023/10/03 01:31:36;;;;;;;38.90;13.55;;;11.70;99.90;;;;;;5021351;28;20057;-60
2023/10/03 01:34:05;;;;;;;42.67;14.23;;;11.80;99.90;;;;;;5032295;28;20049;-59
2023/10/03 01:36:34;;;;;;;41.33;15.90;;;11.70;99.90;;;;;;5033846;28;20050;-60
2023/10/03 01:39:02;;;;;;;51.63;16.42;;;11.70;99.90;;;;;;5042304;28;20404;-60
2023/10/03 01:41:31;;;;;;;40.80;15.68;;;11.80;99.90;;;;;;5052234;28;20120;-60
2023/10/03 01:43:59;;;;;;;53.10;17.85;;;11.80;99.90;;;;;;5053459;28;20049;-60
2023/10/03 01:46:28;;;;;;;53.63;18.27;;;11.80;99.90;;;;;;5040484;28;20065;-60
2023/10/03 01:48:57;;;;;;;56.95;17.63;;;11.80;99.90;;;;;;5036703;28;20041;-59
2023/10/03 01:51:24;;;;;;;52.65;18.35;;;11.80;99.90;;;;;;5031768;28;20049;-58
2023/10/03 01:53:55;;;;;;;65.95;20.13;;;11.80;99.90;;;;;;5032216;28;20389;-59
2023/10/03 01:56:25;;;;;;;51.03;18.35;;;11.80;99.90;;;;;;5032984;28;20045;-59
2023/10/03 01:58:54;;;;;;;50.30;16.27;;;11.80;99.90;;;;;;5028363;28;20050;-59
2023/10/03 02:01:23;;;;;;;;;;;11.80;99.90;;;;;;5011668;28;20050;-59
2023/10/03 02:03:51;;;;;;;53.00;17.92;;;11.80;99.90;;;;;;5024610;28;20373;-59
2023/10/03 02:06:20;;;;;;;58.65;19.38;;;11.80;99.90;;;;;;5015165;28;20053;-59
2023/10/03 02:08:47;;;;;;;58.42;18.90;;;11.80;99.90;;;;;;5032175;28;20045;-59
2023/10/03 02:11:16;;;;;;;68.43;18.17;;;11.80;99.90;;;;;;5033591;28;20079;-60
2023/10/03 02:13:45;;;;;;;60.47;19.33;;;11.80;99.90;;;;;;5031507;28;20056;-59
2023/10/03 02:16:17;;;;;;;60.00;18.42;;;11.70;99.90;;;;;;5033145;28;20045;-60
2023/10/03 02:18:45;;;;;;;66.80;17.98;;;11.70;99.90;;;;;;5048240;28;20088;-60
2023/10/03 02:21:16;;;;;;;67.28;20.33;;;11.80;99.90;;;;;;5045023;28;20052;-60
2023/10/03 02:23:47;;;;;;;51.72;16.02;;;11.70;99.90;;;;;;5052973;28;20491;-60
2023/10/03 02:26:16;;;;;;;47.40;14.45;;;11.70;99.90;;;;;;5036918;28;20041;-60
2023/10/03 02:28:44;;;;;;;56.25;15.13;;;11.70;99.90;;;;;;5052672;28;20056;-59
2023/10/03 02:31:15;;;;;;;52.35;16.20;;;11.70;99.90;;;;;;5052421;28;20041;-59
2023/10/03 02:33:44;;;;;;;;;;;11.70;99.90;;;;;;5041241;28;20045;-59
2023/10/03 02:36:15;;;;;;;40.88;13.10;;;11.70;99.90;;;;;;5032905;28;19921;-59
2023/10/03 02:38:43;;;;;;;;;;;11.70;99.90;;;;;;5031800;28;20409;-59
2023/10/03 02:41:12;;;;;;;33.50;12.07;;;11.70;99.90;;;;;;5031296;28;19921;-61
2023/10/03 02:43:42;;;;;;;31.63;12.63;;;11.70;99.90;;;;;;5018939;28;20041;-59
2023/10/03 02:46:20;;;;;;;32.88;12.23;;;11.70;99.90;;;;;;5031545;28;20045;-59
2023/10/03 02:48:51;;;;;;;27.45;11.15;;;11.70;99.90;;;;;;5048491;28;20428;-59
2023/10/03 02:51:19;;;;;;;29.88;11.23;;;11.70;99.90;;;;;;5042484;28;20048;-59
2023/10/03 02:53:46;;;;;;;29.88;10.40;;;11.70;99.90;;;;;;5031036;28;20057;-61
2023/10/03 02:56:15;;;;;;;24.20;10.77;;;11.60;99.90;;;;;;5030153;28;20048;-60
2023/10/03 02:58:44;;;;;;;26.20;9.77;;;11.60;99.90;;;;;;5032246;28;20501;-61
2023/10/03 03:01:12;;;;;;;24.73;9.30;;;11.60;99.90;;;;;;5031262;28;20041;-60
2023/10/03 03:03:42;;;;;;;23.40;9.23;;;11.50;99.90;;;;;;5031938;28;20302;-61
2023/10/03 03:06:14;;;;;;;18.35;7.85;;;11.40;99.90;;;;;;5030802;28;20061;-60
2023/10/03 03:08:45;;;;;;;18.52;8.80;;;11.30;99.90;;;;;;5035789;28;20045;-60
2023/10/03 03:11:17;;;;;;;18.08;7.75;;;11.30;99.90;;;;;;5050645;28;20045;-60
2023/10/03 03:13:45;;;;;;;20.55;8.20;;;11.20;99.90;;;;;;5045165;28;20068;-60
2023/10/03 03:16:14;;;;;;;19.92;8.80;;;11.10;99.90;;;;;;5031872;28;20049;-61
2023/10/03 03:18:42;;;;;;;20.25;8.48;;;11.10;99.90;;;;;;5046478;28;20045;-60
2023/10/03 03:21:14;;;;;;;19.40;8.25;;;11.10;99.90;;;;;;5042992;28;20516;-60
2023/10/03 03:23:55;;;;;;;18.42;8.23;;;11.10;99.90;;;;;;5031846;28;20033;-61
2023/10/03 03:26:36;;;;;;;15.77;7.07;;;11.10;99.90;;;;;;5030777;28;20049;-60
2023/10/03 03:29:19;;;;;;;19.90;8.07;;;11.10;99.90;;;;;;5030616;28;20046;-60
2023/10/03 03:31:49;;;;;;;12.70;6.50;;;11.00;99.90;;;;;;5031631;28;20381;-60
2023/10/03 03:34:17;;;;;;;;;;;10.90;99.90;;;;;;5031490;28;20489;-60
2023/10/03 03:36:46;;;;;;;11.07;5.90;;;10.90;99.90;;;;;;5031581;28;19925;-61
2023/10/03 03:39:16;;;;;;;11.98;6.20;;;10.80;99.90;;;;;;5030249;28;20049;-61
2023/10/03 03:41:43;;;;;;;11.53;5.83;;;10.80;99.90;;;;;;5031586;28;20072;-62
2023/10/03 03:44:12;;;;;;;13.73;5.05;;;10.70;99.90;;;;;;5031323;28;20072;-60
2023/10/03 03:46:43;;;;;;;14.45;5.38;;;10.70;99.90;;;;;;5031202;28;20072;-60
2023/10/03 03:49:12;;;;;;;11.57;4.97;;;10.60;99.90;;;;;;5051007;28;20055;-60
2023/10/03 03:51:40;;;;;;;8.98;4.75;;;10.60;99.90;;;;;;5039372;28;20060;-61
2023/10/03 03:54:09;;;;;;;7.68;4.10;;;10.50;99.90;;;;;;5031502;28;20044;-61
2023/10/03 03:56:38;;;;;;;11.57;4.30;;;10.50;99.90;;;;;;5042409;28;20408;-60
2023/10/03 03:59:08;;;;;;;8.65;3.85;;;10.40;99.90;;;;;;5050332;28;20369;-60
2023/10/03 04:01:36;;;;;;;11.52;4.90;;;10.40;99.90;;;;;;5030745;28;20405;-60
2023/10/03 04:04:07;;;;;;;9.55;4.00;;;10.40;99.90;;;;;;5030822;28;20052;-59
2023/10/03 04:06:35;;;;;;;9.85;4.10;;;10.30;99.90;;;;;;5031202;28;20425;-60
2023/10/03 04:09:07;;;;;;;8.90;4.35;;;10.30;99.90;;;;;;5030971;28;20482;-59
2023/10/03 04:11:36;;;;;;;9.18;4.20;;;10.30;99.90;;;;;;5031271;28;20052;-60
2023/10/03 04:14:05;;;;;;;6.65;3.80;;;10.20;99.90;;;;;;5030754;28;20053;-60
2023/10/03 04:16:44;;;;;;;8.93;3.95;;;10.10;99.90;;;;;;5031081;28;20243;-60
2023/10/03 04:19:12;;;;;;;9.60;4.03;;;10.10;99.90;;;;;;5045969;28;20380;-60
2023/10/03 04:21:40;;;;;;;10.90;4.93;;;10.10;99.90;;;;;;5038144;28;20056;-60
2023/10/03 04:24:16;;;;;;;12.90;3.72;;;10.10;99.90;;;;;;5032940;28;20042;-59
2023/10/03 04:26:44;;;;;;;9.20;3.47;;;10.00;99.90;;;;;;5032864;28;20052;-60
2023/10/03 04:29:13;;;;;;;7.75;3.60;;;10.00;99.90;;;;;;5034799;28;20512;-58
2023/10/03 04:31:44;;;;;;;8.75;3.92;;;10.00;99.90;;;;;;5035658;28;20103;-59
2023/10/03 04:34:15;;;;;;;7.63;4.23;;;10.00;99.90;;;;;;5035508;28;20048;-58
2023/10/03 04:36:45;;;;;;;7.38;3.67;;;9.90;99.90;;;;;;5034785;28;20295;-59
2023/10/03 04:39:13;;;;;;;7.90;3.53;;;9.90;99.90;;;;;;5034945;28;20049;-58
2023/10/03 04:41:43;;;;;;;9.13;3.65;;;9.90;99.90;;;;;;5036255;28;20059;-58
2023/10/03 04:44:16;;;;;;;7.00;3.00;;;9.90;99.90;;;;;;5035011;28;20045;-59
2023/10/03 04:46:48;;;;;;;10.40;3.47;;;9.80;99.90;;;;;;5034967;28;20049;-59
2023/10/03 04:49:16;;;;;;;7.78;3.20;;;9.80;99.90;;;;;;5010017;28;20046;-59
2023/10/03 04:51:46;;;;;;;10.98;3.53;;;9.80;99.90;;;;;;5023467;28;20057;-60
2023/10/03 04:54:16;;;;;;;7.78;3.53;;;9.80;99.90;;;;;;5031556;28;20422;-59
2023/10/03 04:56:44;;;;;;;9.37;3.90;;;9.80;99.90;;;;;;5029860;28;20049;-60
2023/10/03 04:59:13;;;;;;;6.35;3.17;;;9.80;99.90;;;;;;5048102;28;20508;-59
2023/10/03 05:01:41;;;;;;;9.35;3.90;;;9.80;99.90;;;;;;5046265;28;20508;-60
2023/10/03 05:04:08;;;;;;;9.00;3.20;;;9.80;99.90;;;;;;5005749;28;20045;-59
2023/10/03 05:06:36;;;;;;;6.68;3.38;;;9.80;99.90;;;;;;5008457;28;20053;-60
2023/10/03 05:09:04;;;;;;;6.80;3.40;;;9.80;99.90;;;;;;5011823;28;20057;-60
2023/10/03 05:11:32;;;;;;;10.00;3.20;;;9.80;99.90;;;;;;5030875;28;20056;-59
2023/10/03 05:14:01;;;;;;;9.25;3.40;;;9.80;99.90;;;;;;5041412;28;20041;-60
2023/10/03 05:16:29;;;;;;;7.32;2.90;;;9.80;99.90;;;;;;5049453;28;20053;-60
2023/10/03 05:18:58;;;;;;;8.55;3.00;;;9.80;99.90;;;;;;5028038;28;20045;-60
2023/10/03 05:21:26;;;;;;;5.93;3.10;;;9.70;99.90;;;;;;5027423;28;20060;-60
2023/10/03 05:23:54;;;;;;;10.15;3.05;;;9.70;99.90;;;;;;5045111;28;20044;-60
2023/10/03 05:26:25;;;;;;;5.50;2.83;;;9.70;99.90;;;;;;5047319;28;20048;-60
2023/10/03 05:28:55;;;;;;;8.43;2.50;;;9.60;99.90;;;;;;5032996;28;20144;-59
2023/10/03 05:31:24;;;;;;;8.85;3.03;;;9.60;99.90;;;;;;5028861;28;20049;-59
2023/10/03 05:33:53;;;;;;;7.88;3.28;;;9.60;99.90;;;;;;5014934;28;20639;-59
2023/10/03 05:36:22;;;;;;;5.43;2.65;;;9.60;99.90;;;;;;5009067;28;20046;-59
2023/10/03 05:38:50;;;;;;;5.07;2.40;;;9.60;99.90;;;;;;5025294;28;20064;-59
2023/10/03 05:41:23;;;;;;;6.10;2.75;;;9.60;99.90;;;;;;5030559;28;20504;-59
2023/10/03 05:43:51;;;;;;;8.00;2.85;;;9.50;99.90;;;;;;5029841;28;20046;-60
2023/10/03 05:46:19;;;;;;;8.70;2.88;;;9.50;99.90;;;;;;5030377;28;20053;-58
2023/10/03 05:48:47;;;;;;;9.63;2.35;;;9.50;99.90;;;;;;5022385;28;20057;-59
2023/10/03 05:51:15;;;;;;;11.73;3.97;;;9.50;99.90;;;;;;5018070;28;20378;-60
2023/10/03 05:53:43;;;;;;;7.47;2.67;;;9.50;99.90;;;;;;5029716;28;20154;-60
2023/10/03 05:56:11;;;;;;;7.78;2.58;;;9.50;99.90;;;;;;5030460;28;20042;-60
2023/10/03 05:58:39;;;;;;;9.52;2.45;;;9.50;99.90;;;;;;5042661;28;20056;-59
2023/10/03 06:01:06;;;;;;;6.63;2.03;;;9.50;99.90;;;;;;5048351;28;20075;-58
2023/10/03 06:03:36;;;;;;;7.88;2.20;;;9.50;99.90;;;;;;5034622;28;20058;-58
2023/10/03 06:06:04;;;;;;;4.35;2.05;;;9.50;99.90;;;;;;5027415;28;20441;-58
2023/10/03 06:08:32;;;;;;;10.32;2.75;;;9.50;99.90;;;;;;5029706;28;20058;-59
2023/10/03 06:11:03;;;;;;;5.28;1.90;;;9.50;99.90;;;;;;5029754;28;20049;-59
2023/10/03 06:13:31;;;;;;;8.05;2.42;;;9.50;99.90;;;;;;5036754;28;20048;-58
2023/10/03 06:15:59;;;;;;;6.05;2.30;;;9.60;99.90;;;;;;5012889;28;20053;-58
2023/10/03 06:18:30;;;;;;;8.45;2.22;;;9.60;99.90;;;;;;5018133;28;20042;-58
2023/10/03 06:20:57;;;;;;;3.95;2.50;;;9.60;99.90;;;;;;5014031;28;20064;-58
2023/10/03 06:23:26;;;;;;;7.68;2.42;;;9.60;99.90;;;;;;5024541;28;20064;-59
2023/10/03 06:25:54;;;;;;;8.98;2.88;;;9.70;99.90;;;;;;5017071;28;20050;-59
2023/10/03 06:28:22;;;;;;;8.40;2.45;;;9.70;99.90;;;;;;5022745;28;20049;-59
2023/10/03 06:30:52;;;;;;;5.10;2.10;;;9.70;99.90;;;;;;5022266;28;20470;-58
2023/10/03 06:33:20;;;;;;;4.95;2.03;;;9.70;99.90;;;;;;5016338;28;20049;-59
2023/10/03 06:35:50;;;;;;;4.50;2.20;;;9.80;99.90;;;;;;5027128;28;20053;-59
2023/10/03 06:38:23;;;;;;;12.68;2.47;;;9.80;99.90;;;;;;5043524;28;20156;-59
2023/10/03 06:40:51;;;;;;;11.52;2.38;;;9.80;99.90;;;;;;5049322;28;20049;-59
2023/10/03 06:43:19;;;;;;;5.07;1.80;;;9.80;99.90;;;;;;5024147;28;20478;-59
2023/10/03 06:45:47;;;;;;;10.15;2.50;;;9.80;99.90;;;;;;5027961;28;20077;-58
2023/10/03 06:48:15;;;;;;;7.78;2.17;;;9.90;99.90;;;;;;5008513;28;20060;-60
2023/10/03 06:50:43;;;;;;;3.88;1.75;;;9.90;99.90;;;;;;5027060;28;20037;-59
2023/10/03 06:53:13;;;;;;;7.18;2.08;;;9.90;99.90;;;;;;5036279;28;20658;-59
2023/10/03 06:55:41;;;;;;;12.45;2.00;;;10.00;99.90;;;;;;5025751;28;20045;-59
2023/10/03 06:58:10;;;;;;;6.80;2.22;;;10.10;99.90;;;;;;5019520;28;20049;-59
2023/10/03 07:00:39;;;;;;;10.13;2.78;;;10.10;99.90;;;;;;5018565;28;20042;-59
2023/10/03 07:03:10;;;;;;;11.77;2.58;;;10.30;99.90;;;;;;5013459;28;20054;-59
2023/10/03 07:05:41;;;;;;;11.30;2.72;;;10.30;99.90;;;;;;5005761;28;20390;-59
2023/10/03 07:08:08;;;;;;;9.88;3.50;;;10.40;99.90;;;;;;5022250;28;20492;-59
2023/10/03 07:10:36;;;;;;;6.90;2.17;;;10.50;99.90;;;;;;5032738;28;20045;-60
2023/10/03 07:13:04;;;;;;;7.93;2.13;;;10.60;99.90;;;;;;5025141;28;20060;-60
2023/10/03 07:15:33;;;;;;;13.15;2.70;;;10.60;99.90;;;;;;5023185;28;20042;-60
2023/10/03 07:18:03;;;;;;;9.02;2.45;;;10.70;99.90;;;;;;5023910;28;20048;-60
2023/10/03 07:20:31;;;;;;;10.43;2.67;;;10.70;99.90;;;;;;5024882;28;20060;-59
2023/10/03 07:23:00;;;;;;;11.88;2.60;;;10.80;99.90;;;;;;5025543;28;20041;-60
2023/10/03 07:25:32;;;;;;;12.15;2.55;;;10.80;99.90;;;;;;5024271;28;20041;-59
2023/10/03 07:28:00;;;;;;;9.15;2.50;;;10.90;99.90;;;;;;5032378;28;20049;-60
2023/10/03 07:30:28;;;;;;;11.52;2.45;;;10.90;99.90;;;;;;5045680;28;20071;-60
2023/10/03 07:32:56;;;;;;;8.70;2.85;;;11.00;99.90;;;;;;5016420;28;20646;-60
2023/10/03 07:35:24;;;;;;;9.80;3.22;;;11.00;99.90;;;;;;5025267;28;20053;-61
2023/10/03 07:37:52;;;;;;;7.85;2.55;;;11.10;99.90;;;;;;5034983;28;20041;-60
2023/10/03 07:40:22;;;;;;;9.48;2.67;;;11.10;99.90;;;;;;5048225;28;20048;-60
2023/10/03 07:42:50;;;;;;;12.90;2.78;;;11.20;99.90;;;;;;5039770;28;20041;-60
2023/10/03 07:45:21;;;;;;;5.80;1.67;;;11.30;99.90;;;;;;5037699;28;20045;-60
2023/10/03 07:47:50;;;;;;;9.70;2.72;;;11.30;99.90;;;;;;5024947;28;20042;-60
2023/10/03 07:50:18;;;;;;;8.65;2.35;;;11.40;99.90;;;;;;5027593;28;20041;-60
2023/10/03 07:52:48;;;;;;;5.95;2.50;;;11.40;99.90;;;;;;5020103;28;20425;-61
2023/10/03 07:55:19;;;;;;;8.25;2.97;;;11.50;99.90;;;;;;5015957;28;20050;-60
2023/10/03 07:57:47;;;;;;;8.55;2.40;;;11.60;99.90;;;;;;5022255;28;20056;-61
2023/10/03 08:00:17;;;;;;;6.47;2.00;;;11.70;99.90;;;;;;5020525;28;20048;-60
2023/10/03 08:02:45;;;;;;;10.25;2.70;;;11.70;99.90;;;;;;5020460;28;20060;-60
2023/10/03 08:05:13;;;;;;;9.38;2.47;;;11.70;99.90;;;;;;5026506;28;20049;-59
2023/10/03 08:07:47;;;;;;;8.43;2.25;;;11.70;99.90;;;;;;5025671;28;20051;-60
2023/10/03 08:10:16;;;;;;;11.45;2.58;;;11.80;99.90;;;;;;5019448;28;20048;-60
2023/10/03 08:12:44;;;;;;;9.68;2.28;;;11.80;99.90;;;;;;5026451;28;20056;-60
2023/10/03 08:15:18;;;;;;;8.05;2.10;;;11.80;99.90;;;;;;5030235;28;20052;-61
2023/10/03 08:17:49;;;;;;;6.80;1.98;;;11.90;99.90;;;;;;5025670;28;20037;-61
2023/10/03 08:20:18;;;;;;;13.57;2.60;;;11.90;99.90;;;;;;5007943;28;20425;-61
2023/10/03 08:22:52;;;;;;;11.38;2.53;;;12.00;99.90;;;;;;5026478;28;20056;-61
2023/10/03 08:25:27;;;;;;;8.13;2.45;;;12.00;99.90;;;;;;5026229;28;20057;-60
2023/10/03 08:27:55;;;;;;;12.05;2.63;;;12.10;99.90;;;;;;5023479;28;20048;-60
2023/10/03 08:30:27;;;;;;;7.72;2.53;;;12.10;99.90;;;;;;5026344;28;20057;-60
2023/10/03 08:32:57;;;;;;;13.90;2.45;;;12.10;99.90;;;;;;5018270;28;20038;-59
2023/10/03 08:35:34;;;;;;;9.63;2.05;;;12.10;99.90;;;;;;5037739;28;20405;-61
2023/10/03 08:38:04;;;;;;;3.85;1.50;;;12.20;99.90;;;;;;5016993;28;20048;-60
2023/10/03 08:40:38;;;;;;;9.02;2.20;;;12.20;99.90;;;;;;5026287;28;20049;-61
2023/10/03 08:43:10;;;;;;;7.43;1.77;;;12.20;99.90;;;;;;5026135;28;20050;-60
2023/10/03 08:45:41;;;;;;;3.13;1.45;;;12.20;99.90;;;;;;5017742;28;20639;-60
2023/10/03 08:48:10;;;;;;;9.63;2.05;;;12.20;99.90;;;;;;5024704;28;20049;-60
2023/10/03 08:50:52;;;;;;;6.70;1.77;;;12.20;99.90;;;;;;5012859;28;20409;-60
2023/10/03 08:53:26;;;;;;;6.35;1.67;;;12.20;99.90;;;;;;5021921;28;20042;-60
2023/10/03 08:56:01;;;;;;;6.32;2.17;;;12.20;99.90;;;;;;5051052;28;20056;-61
2023/10/03 08:58:30;;;;;;;8.40;3.00;;;12.20;99.90;;;;;;5035018;28;20062;-60
2023/10/03 09:01:04;;;;;;;10.60;1.58;;;12.20;99.90;;;;;;5021436;28;20508;-61
2023/10/03 09:03:46;;;;;;;4.07;2.08;;;12.10;99.90;;;;;;5020564;28;20049;-61
2023/10/03 09:06:23;;;;;;;6.47;1.80;;;12.10;99.90;;;;;;5017494;28;20045;-61
2023/10/03 09:09:16;;;;;;;7.15;1.95;;;12.10;99.90;;;;;;5034581;28;20049;-60
2023/10/03 09:11:44;;;;;;;7.55;2.00;;;12.10;99.90;;;;;;5030160;28;20497;-60
2023/10/03 09:14:14;;;;;;;7.07;1.63;;;12.20;99.90;;;;;;5032237;28;21918;-62
2023/10/03 09:16:42;;;;;;;7.32;1.50;;;12.30;99.90;;;;;;5021461;28;20054;-62
2023/10/03 09:19:23;;;;;;;7.40;1.25;;;12.40;99.90;;;;;;5024996;28;20041;-60
2023/10/03 09:21:52;;;;;;;7.38;1.80;;;12.40;99.90;;;;;;5025496;28;20049;-61
2023/10/03 09:24:21;;;;;;;3.85;1.35;;;12.50;99.90;;;;;;5017441;28;20042;-59
2023/10/03 09:26:52;;;;;;;6.60;1.40;;;12.60;99.90;;;;;;5030633;28;20398;-61
2023/10/03 09:29:32;;;;;;;5.30;1.20;;;12.70;99.90;;;;;;5031785;28;20045;-60
2023/10/03 09:32:19;;;;;;;11.82;1.95;;;12.80;99.90;;;;;;5026132;28;20038;-59
2023/10/03 09:34:58;;;;;;;8.00;1.52;;;12.90;99.90;;;;;;5017729;28;20528;-61
2023/10/03 09:37:29;;;;;;;4.05;1.23;;;12.90;99.90;;;;;;5012532;28;20506;-61
2023/10/03 09:40:00;;;;;;;5.20;1.27;;;13.00;99.90;;;;;;5030706;28;20484;-60
2023/10/03 09:42:32;;;;;;;5.78;1.20;;;13.00;99.90;;;;;;5026067;28;20513;-59
2023/10/03 09:45:00;;;;;;;5.50;1.20;;;13.10;99.90;;;;;;5025509;28;20042;-59
2023/10/03 09:47:31;;;;;;;8.38;1.50;;;13.30;99.90;;;;;;5016869;28;20053;-59
2023/10/03 09:50:08;;;;;;;6.57;1.10;;;13.30;99.90;;;;;;5022317;28;20042;-60
2023/10/03 09:52:44;;;;;;;4.88;1.30;;;13.40;99.90;;;;;;5025276;28;20045;-61
2023/10/03 09:55:17;;;;;;;6.57;1.30;;;13.40;99.90;;;;;;5022352;28;20481;-60
2023/10/03 09:57:55;;;;;;;6.65;1.52;;;13.50;99.90;;;;;;5022014;28;20049;-60
2023/10/03 10:01:11;;;;;;;2.50;1.20;;;13.70;99.90;;;;;;5025483;28;20037;-60
2023/10/03 10:03:19;;;;;;;6.25;1.40;;;13.80;99.90;;;;;;5025641;28;20053;-59
2023/10/03 10:06:14;;;;;;;8.40;1.60;;;13.90;99.90;;;;;;5027761;28;20049;-60
2023/10/03 10:08:49;;;;;;;7.20;1.08;;;14.00;99.90;;;;;;5020923;28;20033;-60
2023/10/03 10:11:21;;;;;;;5.80;1.38;;;14.10;99.90;;;;;;5011549;28;20409;-61
2023/10/03 10:14:09;;;;;;;6.13;1.33;;;14.20;99.90;;;;;;5028555;28;20073;-61
2023/10/03 10:17:03;;;;;;;6.70;0.68;;;14.30;99.90;;;;;;5014235;28;20512;-60
2023/10/03 10:20:09;;;;;;;6.35;0.98;;;14.40;99.90;;;;;;5018477;28;20057;-60
2023/10/03 10:23:13;;;;;;;3.28;0.60;;;14.50;99.90;;;;;;5025365;28;20068;-60
2023/10/03 10:25:49;;;;;;;4.15;0.98;;;14.60;99.90;;;;;;5007461;28;20631;-60
2023/10/03 10:28:26;;;;;;;6.95;0.90;;;14.80;99.90;;;;;;5035155;28;20049;-60
2023/10/03 10:31:21;;;;;;;3.78;0.70;;;14.90;99.90;;;;;;5028193;28;20045;-60
2023/10/03 10:33:49;;;;;;;5.53;0.68;;;14.90;99.90;;;;;;5022986;28;20515;-62
2023/10/03 10:36:18;;;;;;;12.10;1.02;;;15.00;99.90;;;;;;5023506;28;20056;-60
2023/10/03 10:38:49;;;;;;;6.07;0.77;;;15.00;99.90;;;;;;5020121;28;20041;-60
2023/10/03 10:41:22;;;;;;;7.28;1.00;;;15.00;99.90;;;;;;5011616;28;20050;-61
2023/10/03 10:44:17;;;;;;;4.55;0.82;;;15.10;99.90;;;;;;5023118;28;20041;-60
2023/10/03 10:46:47;;;;;;;3.00;0.70;;;15.00;99.90;;;;;;5028970;28;20574;-60
2023/10/03 10:49:40;;;;;;;7.47;1.58;;;14.90;99.90;;;;;;5024803;28;20057;-60
2023/10/03 10:52:09;;;;;;;5.28;1.00;;;15.00;99.90;;;;;;5013983;28;20385;-61
2023/10/03 10:54:39;;;;;;;;;;;15.00;99.90;;;;;;5042849;28;20041;-61
2023/10/03 10:57:10;;;;;;;6.27;1.43;;;15.00;99.90;;;;;;5019959;28;19925;-62
2023/10/03 10:59:43;;;;;;;5.90;1.13;;;15.00;99.90;;;;;;5019288;28;20045;-61
2023/10/03 11:02:16;;;;;;;5.90;0.90;;;15.00;99.90;;;;;;5014518;28;20085;-61
2023/10/03 11:04:51;;;;;;;8.65;1.63;;;15.10;99.90;;;;;;5015843;28;20505;-60
2023/10/03 11:07:23;;;;;;;5.90;1.02;;;15.30;99.90;;;;;;5025782;28;20060;-60
2023/10/03 11:09:52;;;;;;;4.78;0.75;;;15.40;99.90;;;;;;5044504;28;20048;-62
2023/10/03 11:12:27;;;;;;;3.67;1.07;;;15.50;99.90;;;;;;5024803;28;20603;-61
2023/10/03 11:14:56;;;;;;;5.35;0.77;;;15.60;99.90;;;;;;5011030;28;20390;-62
2023/10/03 11:17:25;;;;;;;3.67;0.50;;;15.60;99.90;;;;;;5036762;28;20249;-61
2023/10/03 11:20:00;;;;;;;6.88;0.70;;;15.70;99.90;;;;;;5040845;28;20041;-61
2023/10/03 11:22:28;;;;;;;1.77;0.75;;;15.80;99.90;;;;;;5029271;28;20212;-61
2023/10/03 11:24:55;;;;;;;6.38;1.40;;;15.90;99.90;;;;;;5027621;28;20212;-61
2023/10/03 11:27:28;;;;;;;8.88;1.10;;;16.00;99.90;;;;;;5014387;28;20393;-61
2023/10/03 11:29:55;;;;;;;4.32;1.00;;;16.10;99.90;;;;;;5017984;28;20504;-61
2023/10/03 11:32:32;;;;;;;11.13;1.40;;;16.10;99.90;;;;;;5014560;28;20052;-61
2023/10/03 11:35:18;;;;;;;8.38;1.20;;;16.10;99.90;;;;;;5029099;28;20501;-61
2023/10/03 11:37:46;;;;;;;5.05;1.20;;;16.30;99.90;;;;;;5025809;28;20049;-61
2023/10/03 11:40:20;;;;;;;7.95;1.23;;;16.40;99.90;;;;;;5012966;28;20042;-61
2023/10/03 11:42:52;;;;;;;10.32;0.95;;;16.40;99.90;;;;;;5022066;28;20060;-61
2023/10/03 11:45:20;;;;;;;6.03;1.58;;;16.60;99.90;;;;;;5044172;28;20531;-61
2023/10/03 11:48:07;;;;;;;5.75;1.13;;;16.90;99.90;;;;;;5025649;28;20056;-61
2023/10/03 11:50:37;;;;;;;5.53;0.70;;;17.30;99.90;;;;;;5047612;28;20044;-61
2023/10/03 11:53:08;;;;;;;6.32;1.10;;;17.50;99.90;;;;;;5037397;28;20507;-61
2023/10/03 11:55:38;;;;;;;4.85;1.05;;;17.80;99.90;;;;;;5007942;28;20050;-61
2023/10/03 11:58:08;;;;;;;4.65;1.00;;;18.00;99.90;;;;;;5020477;28;20041;-61
2023/10/03 12:00:42;;;;;;;4.25;1.00;;;18.10;99.90;;;;;;5011491;28;20057;-61
2023/10/03 12:03:11;;;;;;;5.00;1.33;;;18.30;99.90;;;;;;5017729;28;20042;-61
2023/10/03 12:05:42;;;;;;;2.50;0.82;;;18.40;99.90;;;;;;5028098;28;20485;-61
2023/10/03 12:08:10;;;;;;;7.10;1.10;;;18.60;99.90;;;;;;5026658;28;20448;-61
2023/10/03 12:10:41;;;;;;;4.80;1.17;;;18.60;99.90;;;;;;5027663;28;20046;-61
2023/10/03 12:13:09;;;;;;;6.47;1.13;;;18.60;99.90;;;;;;5026991;28;20041;-61
2023/10/03 12:15:42;;;;;;;8.18;1.40;;;18.60;99.90;;;;;;5020896;28;20076;-62
2023/10/03 12:18:11;;;;;;;5.40;0.82;;;18.60;99.90;;;;;;5018025;28;20056;-61
2023/10/03 12:20:41;;;;;;;8.95;1.70;;;18.40;99.90;;;;;;5020796;28;20053;-61
2023/10/03 12:23:12;;;;;;;6.97;1.20;;;18.10;99.90;;;;;;5024871;28;20072;-61
2023/10/03 12:25:41;;;;;;;5.90;1.25;;;17.70;99.90;;;;;;5016746;28;20052;-62
2023/10/03 12:28:10;;;;;;;6.25;1.17;;;17.30;99.90;;;;;;5013511;28;20061;-61
2023/10/03 12:30:38;;;;;;;6.37;1.20;;;17.00;99.90;;;;;;5020585;28;20065;-61
2023/10/03 12:33:05;;;;;;;7.78;1.25;;;16.70;99.90;;;;;;5018483;28;20045;-62
2023/10/03 12:35:34;;;;;;;9.23;1.17;;;16.60;99.90;;;;;;5016030;28;20068;-61
2023/10/03 12:38:02;;;;;;;8.00;1.00;;;16.50;99.90;;;;;;5025664;28;20056;-61
2023/10/03 12:40:30;;;;;;;6.15;1.33;;;16.50;99.90;;;;;;5019037;28;20396;-60
2023/10/03 12:42:58;;;;;;;3.47;0.90;;;16.50;99.90;;;;;;5022646;28;20046;-61
2023/10/03 12:45:26;;;;;;;7.45;1.40;;;16.40;99.90;;;;;;5019077;28;20084;-61
2023/10/03 12:47:54;;;;;;;4.85;1.10;;;16.40;99.90;;;;;;5016996;28;20057;-61
2023/10/03 12:50:27;;;;;;;5.25;0.98;;;16.40;99.90;;;;;;5048773;28;20057;-61
2023/10/03 12:52:58;;;;;;;6.63;1.13;;;16.40;99.90;;;;;;5042595;28;20045;-60
2023/10/03 12:55:28;;;;;;;7.28;0.90;;;16.40;99.90;;;;;;5030500;28;20053;-62
2023/10/03 12:57:58;;;;;;;5.88;0.98;;;16.70;99.90;;;;;;5035262;28;20045;-61
2023/10/03 13:00:26;;;;;;;7.53;0.95;;;17.10;99.90;;;;;;5036880;28;20360;-63
2023/10/03 13:02:59;;;;;;;3.85;0.90;;;17.30;99.90;;;;;;5027297;28;20029;-61